Time;durP1;ratioP1;P1;durP2;ratioP2;P2;SDS_P1;SDS_P2;PMS_P1;PMS_P2;Temp;Humidity;BMP_temperature;BMP_pressure;BME280_temperature;BME280_humidity;BME280_pressure;Samples;Min_cycle;Max_cycle;Signal;HPM_P1;HPM_P2
2023/12/10 00:01:45;;;;;;;4.28;1.98;;;;;;;;;;4969422;28;20029;-64
2023/12/10 00:04:10;;;;;;;6.38;1.40;;;;;;;;;;4963013;28;20102;-64
2023/12/10 00:06:36;;;;;;;2.92;1.50;;;;;;;;;;4966715;28;20038;-64
2023/12/10 00:09:02;;;;;;;6.95;1.70;;;;;;;;;;4966264;28;20362;-62
2023/12/10 00:11:27;;;;;;;4.38;1.83;;;;;;;;;;4972082;28;20090;-63
2023/12/10 00:13:53;;;;;;;4.43;1.60;;;;;;;;;;4970338;28;20122;-63
2023/12/10 00:16:18;;;;;;;2.88;1.23;;;;;;;;;;4970007;28;20023;-62
2023/12/10 00:18:43;;;;;;;3.58;1.50;;;;;;;;;;4969588;28;20471;-63
2023/12/10 00:21:11;;;;;;;7.18;1.70;;;;;;;;;;4970586;28;20023;-64
2023/12/10 00:23:37;;;;;;;2.67;1.27;;;;;;;;;;4970850;28;20023;-66
2023/12/10 00:26:02;;;;;;;4.80;1.38;;;;;;;;;;4971317;28;20023;-64
2023/12/10 00:28:28;;;;;;;4.65;1.20;;;;;;;;;;4973228;28;20094;-65
2023/12/10 00:30:53;;;;;;;2.83;1.10;;;;;;;;;;4979626;23;20050;-70
2023/12/10 00:33:19;;;;;;;4.15;1.42;;;;;;;;;;4955392;28;20026;-68
2023/12/10 00:35:44;;;;;;;3.42;1.20;;;;;;;;;;4955933;28;20106;-69
2023/12/10 00:38:10;;;;;;;2.25;1.10;;;;;;;;;;4955201;28;20022;-69
2023/12/10 00:40:35;;;;;;;4.43;1.10;;;;;;;;;;4957066;28;20024;-67
2023/12/10 00:43:00;;;;;;;1.25;0.75;;;;;;;;;;4967959;28;20010;-69
2023/12/10 00:45:25;;;;;;;2.10;0.98;;;;;;;;;;4960396;28;20033;-69
2023/12/10 00:47:50;;;;;;;1.02;0.70;;;;;;;;;;4957127;28;20147;-68
2023/12/10 00:50:16;;;;;;;3.08;0.82;;;;;;;;;;4957706;28;20034;-68
2023/12/10 00:52:41;;;;;;;0.88;0.68;;;;;;;;;;4950759;28;20364;-68
2023/12/10 00:55:06;;;;;;;2.70;0.98;;;;;;;;;;4955805;28;20368;-68
2023/12/10 00:57:32;;;;;;;2.65;1.00;;;;;;;;;;4950713;28;20198;-70
2023/12/10 00:59:58;;;;;;;4.28;0.90;;;;;;;;;;4958447;28;20015;-68
2023/12/10 01:02:24;;;;;;;1.23;0.80;;;;;;;;;;4956982;28;20101;-69
2023/12/10 01:04:49;;;;;;;1.25;0.80;;;;;;;;;;4952931;28;20019;-69
2023/12/10 01:07:16;;;;;;;2.72;1.15;;;;;;;;;;4958051;28;20028;-70
2023/12/10 01:09:42;;;;;;;1.63;0.90;;;;;;;;;;4965397;28;20015;-68
2023/12/10 01:12:07;;;;;;;2.25;1.08;;;;;;;;;;4960566;28;20110;-67
2023/12/10 01:14:32;;;;;;;2.30;1.08;;;;;;;;;;4964123;28;20368;-70
2023/12/10 01:16:57;;;;;;;2.15;0.90;;;;;;;;;;4968322;28;20049;-68
2023/12/10 01:19:23;;;;;;;4.53;1.10;;;;;;;;;;4957612;28;20011;-69
2023/12/10 01:21:49;;;;;;;1.90;0.90;;;;;;;;;;4954130;28;20019;-69
2023/12/10 01:24:16;;;;;;;2.67;1.20;;;;;;;;;;4959317;28;20015;-68
2023/12/10 01:26:41;;;;;;;1.45;0.90;;;;;;;;;;4954592;28;20035;-70
2023/12/10 01:29:06;;;;;;;1.55;1.02;;;;;;;;;;4962860;28;20024;-69
2023/12/10 01:31:35;;;;;;;1.67;1.05;;;;;;;;;;4967620;28;20456;-69
2023/12/10 01:34:01;;;;;;;3.17;1.35;;;;;;;;;;4955245;28;20073;-67
2023/12/10 01:36:26;;;;;;;2.40;1.33;;;;;;;;;;4958961;28;20402;-70
2023/12/10 01:38:52;;;;;;;5.20;1.77;;;;;;;;;;4968764;28;20455;-69
2023/12/10 01:41:18;;;;;;;5.82;2.17;;;;;;;;;;4952100;28;20038;-70
2023/12/10 01:43:43;;;;;;;3.42;1.77;;;;;;;;;;4960136;28;20625;-69
2023/12/10 01:46:09;;;;;;;2.95;1.23;;;;;;;;;;4958832;28;20031;-69
2023/12/10 01:48:34;;;;;;;3.10;1.80;;;;;;;;;;4957255;28;20023;-69
2023/12/10 01:51:00;;;;;;;1.48;0.95;;;;;;;;;;4962708;28;20348;-70
2023/12/10 01:53:25;;;;;;;1.95;0.90;;;;;;;;;;4955580;28;20703;-67
2023/12/10 01:55:50;;;;;;;1.27;0.80;;;;;;;;;;4959738;28;20393;-68
2023/12/10 01:58:16;;;;;;;1.77;0.80;;;;;;;;;;4957188;28;20027;-72
2023/12/10 02:00:41;;;;;;;2.15;0.90;;;;;;;;;;4953785;28;20015;-70
2023/12/10 02:03:06;;;;;;;1.27;0.90;;;;;;;;;;4959171;28;20023;-70
2023/12/10 02:05:32;;;;;;;1.38;0.90;;;;;;;;;;4959654;28;20034;-68
2023/12/10 02:07:57;;;;;;;2.33;1.08;;;;;;;;;;4961869;28;20419;-70
2023/12/10 02:10:22;;;;;;;2.67;1.13;;;;;;;;;;4963871;28;20016;-69
2023/12/10 02:12:48;;;;;;;2.67;1.33;;;;;;;;;;4954425;28;20031;-69
2023/12/10 02:15:17;;;;;;;2.05;1.05;;;;;;;;;;4959975;28;20031;-68
2023/12/10 02:17:43;;;;;;;2.72;1.33;;;;;;;;;;4957446;28;20019;-68
2023/12/10 02:20:14;;;;;;;3.22;1.48;;;;;;;;;;4960921;28;20090;-70
2023/12/10 02:22:58;;;;;;;3.47;1.50;;;;;;;;;;4960313;28;20070;-69
2023/12/10 02:25:32;;;;;;;4.25;1.30;;;;;;;;;;4958339;28;20160;-70
2023/12/10 02:27:57;;;;;;;3.30;1.13;;;;;;;;;;4955116;28;20034;-69
2023/12/10 02:30:23;;;;;;;2.40;0.98;;;;;;;;;;4961313;28;20030;-68
2023/12/10 02:32:48;;;;;;;2.42;0.90;;;;;;;;;;4948845;28;20023;-69
2023/12/10 02:35:13;;;;;;;8.18;1.30;;;;;;;;;;4954110;28;20418;-69
2023/12/10 02:37:39;;;;;;;3.22;0.98;;;;;;;;;;4967259;28;20045;-69
2023/12/10 02:40:05;;;;;;;1.58;0.90;;;;;;;;;;4958920;28;20379;-69
2023/12/10 02:42:30;;;;;;;2.40;1.13;;;;;;;;;;4984334;28;20010;-71
2023/12/10 02:44:55;;;;;;;5.47;1.25;;;;;;;;;;4994325;28;20033;-69
2023/12/10 02:47:20;;;;;;;1.42;1.10;;;;;;;;;;4984324;28;20011;-69
2023/12/10 02:49:46;;;;;;;2.78;1.00;;;;;;;;;;4977082;28;20058;-69
2023/12/10 02:52:11;;;;;;;3.42;1.38;;;;;;;;;;4971235;28;20030;-68
2023/12/10 02:54:36;;;;;;;2.67;1.25;;;;;;;;;;4966545;28;20023;-70
2023/12/10 02:57:01;;;;;;;3.03;1.20;;;;;;;;;;4953784;28;20182;-69
2023/12/10 02:59:27;;;;;;;2.75;1.35;;;;;;;;;;4959683;28;20026;-70
2023/12/10 03:01:52;;;;;;;4.80;1.20;;;;;;;;;;4957093;28;20106;-70
2023/12/10 03:04:17;;;;;;;2.95;1.20;;;;;;;;;;4958108;28;20015;-70
2023/12/10 03:06:42;;;;;;;2.15;1.10;;;;;;;;;;4957252;28;20420;-70
2023/12/10 03:09:08;;;;;;;5.32;1.60;;;;;;;;;;4959384;28;20102;-69
2023/12/10 03:11:33;;;;;;;2.25;1.20;;;;;;;;;;4968129;28;20099;-69
2023/12/10 03:13:59;;;;;;;9.45;1.48;;;;;;;;;;4955542;28;20023;-69
2023/12/10 03:16:24;;;;;;;5.25;1.33;;;;;;;;;;4952129;28;20507;-70
2023/12/10 03:18:49;;;;;;;4.47;1.20;;;;;;;;;;4961179;28;20015;-70
2023/12/10 03:21:14;;;;;;;3.63;1.40;;;;;;;;;;4957117;28;20026;-71
2023/12/10 03:23:40;;;;;;;7.95;1.33;;;;;;;;;;4959056;28;20018;-71
2023/12/10 03:26:05;;;;;;;2.00;1.25;;;;;;;;;;4953182;28;20111;-70
2023/12/10 03:28:30;;;;;;;3.00;1.23;;;;;;;;;;4957838;28;20126;-67
2023/12/10 03:30:55;;;;;;;6.43;1.60;;;;;;;;;;4956630;28;20105;-68
2023/12/10 03:33:21;;;;;;;2.72;1.30;;;;;;;;;;4957152;28;20026;-68
2023/12/10 03:35:46;;;;;;;2.88;1.42;;;;;;;;;;4950009;28;20506;-68
2023/12/10 03:38:11;;;;;;;2.58;1.33;;;;;;;;;;4968694;28;20023;-69
2023/12/10 03:40:37;;;;;;;4.53;1.60;;;;;;;;;;4954599;28;20043;-68
2023/12/10 03:43:03;;;;;;;3.30;1.00;;;;;;;;;;4969778;28;20014;-67
2023/12/10 03:45:28;;;;;;;3.13;1.00;;;;;;;;;;4956182;28;20027;-69
2023/12/10 03:47:53;;;;;;;7.03;1.17;;;;;;;;;;4954599;28;20058;-67
2023/12/10 03:50:18;;;;;;;2.65;1.10;;;;;;;;;;4961372;28;20022;-68
2023/12/10 03:52:43;;;;;;;4.35;1.30;;;;;;;;;;4958062;28;20034;-69
2023/12/10 03:55:09;;;;;;;6.15;1.08;;;;;;;;;;4951359;28;20670;-68
2023/12/10 03:57:35;;;;;;;14.23;1.50;;;;;;;;;;4950510;28;20006;-69
2023/12/10 04:00:00;;;;;;;6.03;1.27;;;;;;;;;;4954456;28;20023;-69
2023/12/10 04:02:26;;;;;;;6.13;1.40;;;;;;;;;;4957409;28;20597;-67
2023/12/10 04:04:51;;;;;;;4.20;1.58;;;;;;;;;;4955987;28;20027;-68
2023/12/10 04:07:16;;;;;;;1.98;1.13;;;;;;;;;;4961414;28;20062;-71
2023/12/10 04:09:41;;;;;;;4.97;1.40;;;;;;;;;;4958877;28;20018;-70
2023/12/10 04:12:07;;;;;;;4.15;1.50;;;;;;;;;;4961243;28;20023;-69
2023/12/10 04:14:32;;;;;;;14.52;1.52;;;;;;;;;;4957232;28;20471;-69
2023/12/10 04:16:57;;;;;;;9.98;2.22;;;;;;;;;;4958261;28;20025;-68
2023/12/10 04:19:22;;;;;;;6.18;1.77;;;;;;;;;;4955114;28;20019;-69
2023/12/10 04:21:48;;;;;;;9.63;1.17;;;;;;;;;;4962981;28;20030;-68
2023/12/10 04:24:15;;;;;;;4.88;1.52;;;;;;;;;;4956339;28;20434;-70
2023/12/10 04:26:40;;;;;;;5.75;1.20;;;;;;;;;;4951383;28;20098;-67
2023/12/10 04:29:05;;;;;;;4.78;1.05;;;;;;;;;;4958151;28;20113;-68
2023/12/10 04:31:31;;;;;;;9.40;1.58;;;;;;;;;;4960152;28;20031;-68
2023/12/10 04:33:56;;;;;;;8.73;1.45;;;;;;;;;;4953123;28;20020;-69
2023/12/10 04:36:21;;;;;;;7.25;1.70;;;;;;;;;;4952019;28;20051;-68
2023/12/10 04:38:47;;;;;;;4.88;1.17;;;;;;;;;;4967561;28;20590;-69
2023/12/10 04:41:12;;;;;;;10.05;1.50;;;;;;;;;;4953524;28;20443;-68
2023/12/10 04:43:38;;;;;;;9.80;2.00;;;;;;;;;;4968172;28;20011;-69
2023/12/10 04:46:03;;;;;;;6.53;1.77;;;;;;;;;;4953205;28;20033;-68
2023/12/10 04:48:28;;;;;;;11.57;1.90;;;;;;;;;;4958400;28;20466;-70
2023/12/10 04:50:54;;;;;;;8.60;1.88;;;;;;;;;;4958717;28;20023;-71
2023/12/10 04:53:19;;;;;;;4.80;1.67;;;;;;;;;;4965329;28;20030;-69
2023/12/10 04:55:44;;;;;;;8.30;1.83;;;;;;;;;;4959105;28;20046;-70
2023/12/10 04:58:09;;;;;;;13.48;1.90;;;;;;;;;;4967163;28;20018;-70
2023/12/10 05:00:35;;;;;;;6.15;1.70;;;;;;;;;;4953574;28;20110;-69
2023/12/10 05:03:00;;;;;;;10.43;1.80;;;;;;;;;;4961278;28;20082;-69
2023/12/10 05:05:26;;;;;;;7.97;2.05;;;;;;;;;;4965488;28;20014;-68
2023/12/10 05:07:51;;;;;;;9.00;1.95;;;;;;;;;;4966605;28;20478;-69
2023/12/10 05:10:16;;;;;;;11.45;2.33;;;;;;;;;;4970218;28;20024;-68
2023/12/10 05:12:41;;;;;;;14.27;2.13;;;;;;;;;;4957627;28;20027;-67
2023/12/10 05:15:09;;;;;;;7.60;1.73;;;;;;;;;;4952990;28;20038;-71
2023/12/10 05:17:35;;;;;;;9.07;1.60;;;;;;;;;;4960212;28;20054;-71
2023/12/10 05:20:00;;;;;;;8.10;2.13;;;;;;;;;;4957813;28;20285;-69
2023/12/10 05:22:25;;;;;;;9.60;1.75;;;;;;;;;;4963478;28;20050;-70
2023/12/10 05:24:51;;;;;;;13.80;2.15;;;;;;;;;;4965784;28;20054;-71
2023/12/10 05:27:16;;;;;;;17.35;2.33;;;;;;;;;;4952708;28;20027;-69
2023/12/10 05:29:41;;;;;;;17.98;2.25;;;;;;;;;;4957883;28;20050;-70
2023/12/10 05:32:06;;;;;;;9.30;2.10;;;;;;;;;;4959993;28;20098;-70
2023/12/10 05:34:32;;;;;;;14.82;2.33;;;;;;;;;;4952933;28;20028;-70
2023/12/10 05:36:57;;;;;;;21.35;2.80;;;;;;;;;;4961634;28;20031;-71
2023/12/10 05:39:23;;;;;;;14.60;1.77;;;;;;;;;;4972208;28;20526;-69
2023/12/10 05:41:48;;;;;;;13.77;2.22;;;;;;;;;;4970628;28;20458;-69
2023/12/10 05:44:13;;;;;;;12.40;2.05;;;;;;;;;;4967698;28;20396;-69
2023/12/10 05:46:38;;;;;;;11.55;2.22;;;;;;;;;;4957477;28;20035;-69
2023/12/10 05:49:04;;;;;;;7.63;1.63;;;;;;;;;;4957497;28;20114;-69
2023/12/10 05:51:29;;;;;;;11.23;2.15;;;;;;;;;;4961062;28;20023;-67
2023/12/10 05:53:54;;;;;;;16.45;2.53;;;;;;;;;;4956785;28;20046;-68
2023/12/10 05:56:19;;;;;;;17.42;2.85;;;;;;;;;;4962116;28;20058;-68
2023/12/10 05:58:45;;;;;;;13.30;2.35;;;;;;;;;;4957392;28;20023;-68
2023/12/10 06:01:10;;;;;;;17.48;2.50;;;;;;;;;;4954973;28;20443;-68
2023/12/10 06:03:36;;;;;;;17.52;2.97;;;;;;;;;;4958484;28;20162;-69
2023/12/10 06:06:01;;;;;;;12.60;2.10;;;;;;;;;;4956424;28;20029;-67
2023/12/10 06:08:26;;;;;;;15.85;3.53;;;;;;;;;;4966812;28;20093;-69
2023/12/10 06:10:51;;;;;;;14.30;2.05;;;;;;;;;;4972574;28;20619;-69
2023/12/10 06:13:17;;;;;;;10.80;1.67;;;;;;;;;;4955187;28;20487;-69
2023/12/10 06:15:43;;;;;;;14.32;1.73;;;;;;;;;;4961204;28;20078;-70
2023/12/10 06:18:08;;;;;;;10.98;2.42;;;;;;;;;;4954923;28;20015;-69
2023/12/10 06:20:34;;;;;;;15.52;2.45;;;;;;;;;;4956127;28;20090;-70
2023/12/10 06:22:59;;;;;;;14.98;2.40;;;;;;;;;;4958545;28;20011;-71
2023/12/10 06:25:25;;;;;;;13.82;2.75;;;;;;;;;;4950845;28;20025;-69
2023/12/10 06:27:50;;;;;;;13.88;2.70;;;;;;;;;;4969152;28;20438;-69
2023/12/10 06:30:15;;;;;;;12.25;1.92;;;;;;;;;;4987946;23;20050;-65
2023/12/10 06:32:41;;;;;;;14.77;1.92;;;;;;;;;;4972584;28;20553;-64
2023/12/10 06:35:07;;;;;;;10.98;1.85;;;;;;;;;;4975373;28;20214;-64
2023/12/10 06:37:32;;;;;;;21.52;2.40;;;;;;;;;;4979539;28;20529;-64
2023/12/10 06:39:57;;;;;;;17.02;1.92;;;;;;;;;;4978108;28;20019;-64
2023/12/10 06:42:22;;;;;;;12.90;2.60;;;;;;;;;;4978088;28;20206;-64
2023/12/10 06:44:48;;;;;;;13.23;2.83;;;;;;;;;;4977841;28;20029;-64
2023/12/10 06:47:13;;;;;;;18.42;5.43;;;;;;;;;;4974687;28;20021;-64
2023/12/10 06:49:38;;;;;;;21.65;4.03;;;;;;;;;;4974986;28;20093;-65
2023/12/10 06:52:03;;;;;;;6.07;1.83;;;;;;;;;;4973296;28;20070;-63
2023/12/10 06:54:28;;;;;;;15.20;2.53;;;;;;;;;;4968018;28;20034;-64
2023/12/10 06:56:54;;;;;;;17.20;2.30;;;;;;;;;;4971674;28;20073;-64
2023/12/10 06:59:19;;;;;;;13.07;2.22;;;;;;;;;;4964088;28;20023;-64
2023/12/10 07:01:44;;;;;;;18.73;2.40;;;;;;;;;;4967331;28;20042;-65
2023/12/10 07:04:09;;;;;;;12.88;2.50;;;;;;;;;;4963938;28;20016;-67
2023/12/10 07:06:35;;;;;;;13.45;2.55;;;;;;;;;;4968758;28;20026;-66
2023/12/10 07:09:00;;;;;;;17.63;3.70;;;;;;;;;;4969641;28;20033;-63
2023/12/10 07:11:25;;;;;;;20.27;3.92;;;;;;;;;;4972811;28;20039;-64
2023/12/10 07:13:53;;;;;;;15.93;3.53;;;;;;;;;;4964082;28;20106;-66
2023/12/10 07:16:18;;;;;;;23.58;4.32;;;;;;;;;;4965079;28;20114;-66
2023/12/10 07:18:45;;;;;;;20.05;3.20;;;;;;;;;;4971669;28;20101;-65
2023/12/10 07:21:10;;;;;;;15.55;2.80;;;;;;;;;;4971158;28;20434;-66
2023/12/10 07:23:36;;;;;;;16.38;2.30;;;;;;;;;;4967961;28;20025;-63
2023/12/10 07:26:01;;;;;;;12.43;2.03;;;;;;;;;;4970388;28;20027;-65
2023/12/10 07:28:27;;;;;;;19.25;3.10;;;;;;;;;;4970824;28;20027;-65
2023/12/10 07:30:52;;;;;;;13.10;2.38;;;;;;;;;;4970267;28;20482;-66
2023/12/10 07:33:17;;;;;;;12.55;2.58;;;;;;;;;;4970387;28;20496;-65
2023/12/10 07:35:42;;;;;;;19.02;2.60;;;;;;;;;;4970932;28;20072;-64
2023/12/10 07:38:08;;;;;;;15.25;2.30;;;;;;;;;;4970152;28;20022;-65
2023/12/10 07:40:33;;;;;;;16.20;2.08;;;;;;;;;;4971280;28;20521;-65
2023/12/10 07:42:58;;;;;;;17.75;2.08;;;;;;;;;;4970015;28;20091;-66
2023/12/10 07:45:23;;;;;;;17.05;3.00;;;;;;;;;;4967745;28;20127;-65
2023/12/10 07:47:49;;;;;;;19.38;2.85;;;;;;;;;;4975114;28;20018;-66
2023/12/10 07:50:14;;;;;;;23.80;2.60;;;;;;;;;;4972308;28;20023;-66
2023/12/10 07:52:39;;;;;;;17.25;3.20;;;;;;;;;;4970783;28;20019;-65
2023/12/10 07:55:05;;;;;;;12.07;2.50;;;;;;;;;;4970704;28;20054;-65
2023/12/10 07:57:30;;;;;;;17.77;3.10;;;;;;;;;;4969493;28;20039;-66
2023/12/10 07:59:55;;;;;;;15.15;2.17;;;;;;;;;;4971778;28;20019;-64
2023/12/10 08:02:20;;;;;;;15.77;2.65;;;;;;;;;;4969600;28;20174;-65
2023/12/10 08:04:46;;;;;;;24.15;2.75;;;;;;;;;;4967662;28;20077;-65
2023/12/10 08:07:11;;;;;;;16.40;2.92;;;;;;;;;;4970237;28;20039;-65
2023/12/10 08:09:36;;;;;;;23.15;2.90;;;;;;;;;;4971880;28;20023;-64
2023/12/10 08:12:02;;;;;;;17.75;2.38;;;;;;;;;;4973274;28;20019;-64
2023/12/10 08:14:28;;;;;;;12.02;2.28;;;;;;;;;;4969747;28;20015;-64
2023/12/10 08:16:53;;;;;;;14.10;2.53;;;;;;;;;;4966664;28;20023;-64
2023/12/10 08:19:19;;;;;;;19.08;2.58;;;;;;;;;;4968074;28;20030;-64
2023/12/10 08:21:44;;;;;;;18.05;2.65;;;;;;;;;;4970377;28;20014;-64
2023/12/10 08:24:09;;;;;;;22.35;2.95;;;;;;;;;;4962514;28;20054;-66
2023/12/10 08:26:34;;;;;;;22.88;3.10;;;;;;;;;;4969472;28;20015;-64
2023/12/10 08:29:00;;;;;;;27.02;3.03;;;;;;;;;;4969422;28;20092;-64
2023/12/10 08:31:25;;;;;;;25.38;3.17;;;;;;;;;;4968558;28;20031;-58
2023/12/10 08:33:50;;;;;;;17.42;2.65;;;;;;;;;;4969502;28;20034;-63
2023/12/10 08:36:16;;;;;;;17.40;2.45;;;;;;;;;;4968570;28;20062;-62
2023/12/10 08:38:41;;;;;;;16.40;2.25;;;;;;;;;;4969455;28;20027;-62
2023/12/10 08:41:06;;;;;;;14.15;2.22;;;;;;;;;;4969019;28;20023;-62
2023/12/10 08:43:32;;;;;;;26.25;3.33;;;;;;;;;;4969930;28;20140;-62
2023/12/10 08:45:58;;;;;;;17.05;2.70;;;;;;;;;;4969183;28;20023;-63
2023/12/10 08:48:23;;;;;;;10.23;2.03;;;;;;;;;;4965886;28;20030;-63
2023/12/10 08:50:48;;;;;;;24.50;3.05;;;;;;;;;;4970423;28;20026;-60
2023/12/10 08:53:13;;;;;;;19.13;2.22;;;;;;;;;;4969521;28;20037;-63
2023/12/10 08:55:39;;;;;;;24.20;3.05;;;;;;;;;;4968499;28;20031;-63
2023/12/10 08:58:04;;;;;;;27.92;4.05;;;;;;;;;;4967915;28;20077;-64
2023/12/10 09:00:29;;;;;;;15.93;3.03;;;;;;;;;;4970123;28;20081;-63
2023/12/10 09:02:54;;;;;;;24.17;3.40;;;;;;;;;;4967105;28;20026;-64
2023/12/10 09:05:19;;;;;;;11.57;2.15;;;;;;;;;;4967118;28;20031;-63
2023/12/10 09:07:45;;;;;;;20.10;2.50;;;;;;;;;;4966026;28;20030;-63
2023/12/10 09:10:10;;;;;;;17.02;2.30;;;;;;;;;;4970470;28;20043;-63
2023/12/10 09:12:35;;;;;;;15.65;3.15;;;;;;;;;;4968391;28;20033;-64
2023/12/10 09:15:00;;;;;;;15.10;2.88;;;;;;;;;;4968436;28;20509;-64
2023/12/10 09:17:26;;;;;;;23.25;2.60;;;;;;;;;;4967149;28;20023;-64
2023/12/10 09:19:51;;;;;;;21.70;2.60;;;;;;;;;;4970314;28;20018;-65
2023/12/10 09:22:16;;;;;;;28.55;2.90;;;;;;;;;;4969688;28;20015;-64
2023/12/10 09:24:42;;;;;;;15.98;2.30;;;;;;;;;;4975550;28;20589;-66
2023/12/10 09:27:07;;;;;;;15.95;2.13;;;;;;;;;;4968708;28;20475;-66
2023/12/10 09:29:38;;;;;;;25.00;3.30;;;;;;;;;;4970695;28;20101;-65
2023/12/10 09:32:07;;;;;;;11.48;1.88;;;;;;;;;;4967994;28;20036;-64
2023/12/10 09:34:33;;;;;;;17.13;2.58;;;;;;;;;;4969149;28;20390;-65
2023/12/10 09:36:58;;;;;;;10.65;2.58;;;;;;;;;;4975650;28;20027;-64
2023/12/10 09:39:24;;;;;;;9.40;1.60;;;;;;;;;;4972024;28;20281;-65
2023/12/10 09:41:49;;;;;;;15.85;3.10;;;;;;;;;;4972571;28;20102;-64
2023/12/10 09:44:15;;;;;;;15.25;2.63;;;;;;;;;;4972690;28;20050;-65
2023/12/10 09:46:40;;;;;;;22.27;2.22;;;;;;;;;;4971487;28;20034;-65
2023/12/10 09:49:06;;;;;;;10.52;2.38;;;;;;;;;;4966838;28;20041;-64
2023/12/10 09:51:31;;;;;;;17.88;2.45;;;;;;;;;;4972469;28;20031;-64
2023/12/10 09:53:56;;;;;;;10.18;2.17;;;;;;;;;;4974334;28;20034;-64
2023/12/10 09:56:21;;;;;;;20.30;2.38;;;;;;;;;;4972056;28;20043;-63
2023/12/10 09:58:47;;;;;;;14.85;2.38;;;;;;;;;;4972921;28;20015;-64
2023/12/10 10:01:12;;;;;;;25.13;3.30;;;;;;;;;;4970355;28;20030;-64
2023/12/10 10:03:37;;;;;;;12.32;2.65;;;;;;;;;;4970337;28;20018;-64
2023/12/10 10:06:02;;;;;;;13.98;2.22;;;;;;;;;;4975597;28;20079;-62
2023/12/10 10:08:28;;;;;;;16.40;2.38;;;;;;;;;;4972268;28;20051;-64
2023/12/10 10:10:53;;;;;;;17.23;2.72;;;;;;;;;;4972528;28;20026;-64
2023/12/10 10:13:18;;;;;;;8.32;1.80;;;;;;;;;;4972559;28;20033;-64
2023/12/10 10:15:44;;;;;;;8.10;1.67;;;;;;;;;;4969743;28;20022;-64
2023/12/10 10:18:10;;;;;;;17.17;2.88;;;;;;;;;;4974964;28;20035;-63
2023/12/10 10:20:37;;;;;;;7.18;1.30;;;;;;;;;;4975366;28;20022;-65
2023/12/10 10:23:04;;;;;;;8.93;2.65;;;;;;;;;;4969266;28;20046;-62
2023/12/10 10:25:29;;;;;;;10.52;2.28;;;;;;;;;;4966690;28;20027;-63
2023/12/10 10:27:54;;;;;;;20.48;3.00;;;;;;;;;;4969484;28;20026;-63
2023/12/10 10:30:19;;;;;;;17.90;2.10;;;;;;;;;;4974238;28;20027;-63
2023/12/10 10:32:46;;;;;;;10.18;1.65;;;;;;;;;;4972234;28;20026;-64
2023/12/10 10:35:12;;;;;;;9.88;2.47;;;;;;;;;;4974440;28;20042;-65
2023/12/10 10:37:37;;;;;;;11.35;1.20;;;;;;;;;;4971103;28;20423;-64
2023/12/10 10:40:03;;;;;;;13.68;1.98;;;;;;;;;;4974253;28;20054;-62
2023/12/10 10:42:28;;;;;;;12.15;1.58;;;;;;;;;;4969173;28;21024;-64
2023/12/10 10:44:54;;;;;;;14.82;2.08;;;;;;;;;;4969613;28;20226;-63
2023/12/10 10:47:20;;;;;;;11.30;1.40;;;;;;;;;;4969942;28;20089;-64
2023/12/10 10:49:52;;;;;;;10.13;2.05;;;;;;;;;;4969158;28;20101;-65
2023/12/10 10:52:19;;;;;;;9.35;1.90;;;;;;;;;;4970482;28;20025;-66
2023/12/10 10:54:45;;;;;;;7.65;1.20;;;;;;;;;;4969321;28;20111;-64
2023/12/10 10:57:11;;;;;;;5.00;1.50;;;;;;;;;;4970720;28;20019;-63
2023/12/10 10:59:36;;;;;;;7.07;1.20;;;;;;;;;;4973935;28;20038;-64
2023/12/10 11:02:04;;;;;;;4.78;1.55;;;;;;;;;;4973172;28;20018;-65
2023/12/10 11:04:34;;;;;;;3.03;1.30;;;;;;;;;;4968844;28;20093;-64
2023/12/10 11:07:00;;;;;;;5.05;1.08;;;;;;;;;;4973185;28;20113;-64
2023/12/10 11:09:25;;;;;;;5.22;1.38;;;;;;;;;;4972592;28;20807;-65
2023/12/10 11:11:50;;;;;;;4.28;1.45;;;;;;;;;;4972159;28;20478;-65
2023/12/10 11:14:22;;;;;;;8.55;1.63;;;;;;;;;;4969663;28;20034;-64
2023/12/10 11:16:53;;;;;;;2.47;0.70;;;;;;;;;;4970690;28;20030;-65
2023/12/10 11:19:18;;;;;;;10.10;1.55;;;;;;;;;;4974214;28;20105;-65
2023/12/10 11:21:43;;;;;;;8.77;1.35;;;;;;;;;;4973512;28;20054;-65
2023/12/10 11:24:09;;;;;;;8.98;1.60;;;;;;;;;;4971091;28;20022;-64
2023/12/10 11:26:34;;;;;;;9.50;1.23;;;;;;;;;;4971403;28;20030;-64
2023/12/10 11:29:01;;;;;;;4.63;1.08;;;;;;;;;;4970545;28;20031;-62
2023/12/10 11:31:27;;;;;;;4.45;0.98;;;;;;;;;;4969215;28;20110;-63
2023/12/10 11:33:52;;;;;;;6.85;1.30;;;;;;;;;;4969848;28;20055;-66
2023/12/10 11:36:17;;;;;;;5.22;0.93;;;;;;;;;;4970444;28;20042;-64
2023/12/10 11:38:46;;;;;;;2.75;0.82;;;;;;;;;;4970734;28;20419;-63
2023/12/10 11:41:12;;;;;;;7.20;1.25;;;;;;;;;;4968943;28;20106;-63
2023/12/10 11:43:37;;;;;;;7.80;1.25;;;;;;;;;;4976904;28;20081;-62
2023/12/10 11:46:03;;;;;;;5.00;1.38;;;;;;;;;;4970688;28;20515;-64
2023/12/10 11:48:28;;;;;;;7.53;1.55;;;;;;;;;;4971254;28;20031;-63
2023/12/10 11:50:53;;;;;;;6.70;1.27;;;;;;;;;;4968356;28;20084;-63
2023/12/10 11:53:19;;;;;;;4.95;1.10;;;;;;;;;;4966975;28;20033;-64
2023/12/10 11:55:44;;;;;;;6.80;1.00;;;;;;;;;;4974435;28;20022;-64
2023/12/10 11:58:10;;;;;;;7.25;1.23;;;;;;;;;;4969762;28;20050;-66
2023/12/10 12:00:35;;;;;;;6.85;1.20;;;;;;;;;;4975994;28;20642;-64
2023/12/10 12:03:02;;;;;;;5.13;1.15;;;;;;;;;;4972937;28;20102;-65
2023/12/10 12:05:27;;;;;;;7.88;1.80;;;;;;;;;;4968479;28;20026;-65
2023/12/10 12:07:53;;;;;;;6.95;1.58;;;;;;;;;;4975000;28;20029;-65
2023/12/10 12:10:18;;;;;;;6.32;1.10;;;;;;;;;;4970556;28;20377;-68
2023/12/10 12:12:47;;;;;;;11.13;2.50;;;;;;;;;;4977052;28;20029;-64
2023/12/10 12:15:13;;;;;;;11.05;1.83;;;;;;;;;;4971899;28;20026;-65
2023/12/10 12:17:40;;;;;;;6.55;1.30;;;;;;;;;;4974104;28;20044;-63
2023/12/10 12:20:18;;;;;;;8.32;2.65;;;;;;;;;;4967393;28;21212;-63
2023/12/10 12:22:44;;;;;;;7.47;1.67;;;;;;;;;;4969340;28;20058;-65
2023/12/10 12:25:09;;;;;;;4.57;1.83;;;;;;;;;;4969588;28;20509;-65
2023/12/10 12:27:34;;;;;;;9.65;1.17;;;;;;;;;;4971040;28;20126;-62
2023/12/10 12:30:00;;;;;;;6.07;1.55;;;;;;;;;;4991915;23;20050;-70
2023/12/10 12:32:25;;;;;;;6.90;1.58;;;;;;;;;;4951930;28;21321;-69
2023/12/10 12:34:50;;;;;;;8.35;1.63;;;;;;;;;;4951885;28;20106;-69
2023/12/10 12:37:15;;;;;;;4.50;1.10;;;;;;;;;;4964177;28;20652;-70
2023/12/10 12:39:41;;;;;;;7.22;1.23;;;;;;;;;;4944528;28;20030;-72
2023/12/10 12:42:07;;;;;;;8.13;1.58;;;;;;;;;;4941018;28;20023;-73
2023/12/10 12:44:32;;;;;;;9.48;1.60;;;;;;;;;;4943015;28;20023;-70
2023/12/10 12:47:00;;;;;;;11.43;1.40;;;;;;;;;;4950890;28;20537;-70
2023/12/10 12:49:26;;;;;;;11.77;1.30;;;;;;;;;;4960923;28;20034;-71
2023/12/10 12:51:51;;;;;;;6.22;1.42;;;;;;;;;;4948636;28;20020;-70
2023/12/10 12:54:17;;;;;;;7.60;1.50;;;;;;;;;;4942842;28;20035;-69
2023/12/10 12:56:44;;;;;;;8.23;1.42;;;;;;;;;;4943647;28;20454;-68
2023/12/10 12:59:10;;;;;;;6.55;1.30;;;;;;;;;;4946695;28;20508;-70
2023/12/10 13:01:36;;;;;;;11.73;1.60;;;;;;;;;;4946925;28;20174;-71
2023/12/10 13:04:01;;;;;;;6.20;1.60;;;;;;;;;;4950175;28;20106;-70
2023/12/10 13:06:26;;;;;;;6.45;1.27;;;;;;;;;;4951584;28;20098;-70
2023/12/10 13:08:52;;;;;;;6.10;1.08;;;;;;;;;;4951225;28;20035;-70
2023/12/10 13:11:17;;;;;;;5.70;1.35;;;;;;;;;;4955490;28;20054;-74
2023/12/10 13:13:43;;;;;;;12.80;1.38;;;;;;;;;;4951319;28;20475;-75
2023/12/10 13:16:08;;;;;;;9.27;2.63;;;;;;;;;;4946324;28;20030;-74
2023/12/10 13:18:34;;;;;;;45.30;23.83;;;;;;;;;;4949557;28;20023;-75
2023/12/10 13:20:59;;;;;;;7.28;1.83;;;;;;;;;;4953576;28;20016;-69
2023/12/10 13:23:24;;;;;;;9.35;1.65;;;;;;;;;;4953435;28;20522;-68
2023/12/10 13:25:50;;;;;;;6.65;1.73;;;;;;;;;;4953307;28;20063;-68
2023/12/10 13:28:15;;;;;;;10.32;1.70;;;;;;;;;;4953718;28;20038;-70
2023/12/10 13:30:40;;;;;;;10.85;2.92;;;;;;;;;;4952923;28;20495;-70
2023/12/10 13:33:06;;;;;;;11.50;2.42;;;;;;;;;;4951153;28;20028;-68
2023/12/10 13:35:31;;;;;;;9.07;2.05;;;;;;;;;;4954912;28;20514;-70
2023/12/10 13:37:56;;;;;;;11.55;2.80;;;;;;;;;;4953106;28;20055;-70
2023/12/10 13:40:21;;;;;;;15.73;2.45;;;;;;;;;;4949446;28;20376;-70
2023/12/10 13:42:47;;;;;;;11.23;1.98;;;;;;;;;;4950440;28;20058;-70
2023/12/10 13:45:12;;;;;;;11.32;2.63;;;;;;;;;;4957823;28;20023;-70
2023/12/10 13:47:37;;;;;;;7.28;1.92;;;;;;;;;;4947383;28;20078;-68
2023/12/10 13:50:03;;;;;;;5.60;1.55;;;;;;;;;;4949076;28;20488;-71
2023/12/10 13:52:28;;;;;;;9.88;2.65;;;;;;;;;;4953356;28;20023;-69
2023/12/10 13:54:54;;;;;;;16.60;2.22;;;;;;;;;;4949688;28;20169;-70
2023/12/10 13:57:20;;;;;;;15.10;2.75;;;;;;;;;;4951014;28;20050;-70
2023/12/10 13:59:45;;;;;;;11.68;2.45;;;;;;;;;;4948860;28;20059;-71
2023/12/10 14:02:10;;;;;;;9.48;2.17;;;;;;;;;;4951915;28;20439;-72
2023/12/10 14:04:39;;;;;;;15.63;1.95;;;;;;;;;;4953118;28;20039;-71
2023/12/10 14:07:06;;;;;;;;;;;;;;;;;;4957531;28;20372;-71
2023/12/10 14:09:32;;;;;;;14.25;3.33;;;;;;;;;;4950712;28;19910;-69
2023/12/10 14:11:58;;;;;;;8.50;1.75;;;;;;;;;;4954435;28;20027;-70
2023/12/10 14:14:23;;;;;;;16.27;2.75;;;;;;;;;;4947568;28;20030;-69
2023/12/10 14:16:48;;;;;;;8.82;1.88;;;;;;;;;;4950296;28;20019;-69
2023/12/10 14:19:14;;;;;;;13.30;2.00;;;;;;;;;;4946763;28;20115;-73
2023/12/10 14:21:42;;;;;;;28.08;2.90;;;;;;;;;;4953711;28;20099;-69
2023/12/10 14:24:07;;;;;;;13.53;2.70;;;;;;;;;;4960676;28;20049;-70
2023/12/10 14:26:33;;;;;;;20.27;2.83;;;;;;;;;;4948587;28;20687;-71
2023/12/10 14:28:58;;;;;;;10.27;1.52;;;;;;;;;;4947995;28;20023;-71